Time;durP1;ratioP1;P1;durP2;ratioP2;P2;SDS_P1;SDS_P2;PMS_P1;PMS_P2;Temp;Humidity;BMP_temperature;BMP_pressure;BME280_temperature;BME280_humidity;BME280_pressure;Samples;Min_cycle;Max_cycle;Signal;HPM_P1;HPM_P2
2023/07/19 00:01:57;;;;;;;11.02;3.25;;;;;;;;;;5042444;28;20021;-50
2023/07/19 00:04:27;;;;;;;6.47;2.72;;;;;;;;;;5042120;28;20244;-46
2023/07/19 00:06:55;;;;;;;7.63;2.30;;;;;;;;;;5043694;28;20397;-48
2023/07/19 00:09:21;;;;;;;4.53;2.25;;;;;;;;;;5043388;28;20090;-50
2023/07/19 00:11:48;;;;;;;7.28;2.10;;;;;;;;;;5043190;28;20025;-46
2023/07/19 00:14:18;;;;;;;7.43;2.45;;;;;;;;;;5042572;28;20317;-57
2023/07/19 00:16:45;;;;;;;4.63;2.45;;;;;;;;;;5043708;28;20097;-48
2023/07/19 00:19:11;;;;;;;6.40;2.40;;;;;;;;;;5043309;28;20041;-50
2023/07/19 00:21:38;;;;;;;5.60;1.88;;;;;;;;;;5043568;28;20325;-51
2023/07/19 00:24:11;;;;;;;5.70;1.90;;;;;;;;;;5043393;28;20029;-55
2023/07/19 00:26:38;;;;;;;5.72;1.75;;;;;;;;;;5043647;28;20042;-47
2023/07/19 00:29:04;;;;;;;7.03;1.73;;;;;;;;;;5043188;28;20040;-51
2023/07/19 00:31:34;;;;;;;4.80;1.50;;;;;;;;;;5043386;28;20048;-46
2023/07/19 00:34:01;;;;;;;6.65;1.70;;;;;;;;;;5043271;28;20032;-53
2023/07/19 00:36:28;;;;;;;4.15;1.60;;;;;;;;;;5042998;28;20348;-49
2023/07/19 00:38:56;;;;;;;5.45;1.92;;;;;;;;;;5043032;28;20025;-48
2023/07/19 00:41:22;;;;;;;5.15;1.50;;;;;;;;;;5042816;28;20042;-45
2023/07/19 00:43:49;;;;;;;5.60;1.60;;;;;;;;;;5042976;28;20033;-44
2023/07/19 00:46:16;;;;;;;6.07;1.58;;;;;;;;;;5043041;28;20025;-54
2023/07/19 00:48:43;;;;;;;4.22;1.40;;;;;;;;;;5042905;28;20034;-48
2023/07/19 00:51:10;;;;;;;9.57;1.48;;;;;;;;;;5043014;28;20270;-49
2023/07/19 00:53:40;;;;;;;3.55;1.50;;;;;;;;;;5042903;28;20021;-48
2023/07/19 00:56:07;;;;;;;5.22;1.80;;;;;;;;;;5042805;28;20037;-55
2023/07/19 00:58:34;;;;;;;4.28;1.35;;;;;;;;;;5042776;28;20090;-54
2023/07/19 01:01:02;;;;;;;3.17;1.50;;;;;;;;;;5042774;28;20018;-51
2023/07/19 01:03:28;;;;;;;6.82;1.73;;;;;;;;;;5040272;28;20045;-43
2023/07/19 01:05:56;;;;;;;3.53;1.40;;;;;;;;;;5034278;28;20270;-47
2023/07/19 01:08:23;;;;;;;5.35;1.40;;;;;;;;;;5033796;28;20057;-44
2023/07/19 01:10:50;;;;;;;4.55;1.20;;;;;;;;;;5028953;28;20045;-46
2023/07/19 01:13:16;;;;;;;4.05;1.35;;;;;;;;;;5027997;28;20041;-44
2023/07/19 01:15:46;;;;;;;4.43;1.60;;;;;;;;;;5031265;28;20325;-50
2023/07/19 01:18:13;;;;;;;7.45;1.60;;;;;;;;;;5042398;28;20069;-45
2023/07/19 01:20:39;;;;;;;5.22;1.90;;;;;;;;;;5036620;28;20026;-47
2023/07/19 01:23:06;;;;;;;5.50;1.70;;;;;;;;;;5027109;28;20240;-43
2023/07/19 01:25:33;;;;;;;5.43;1.88;;;;;;;;;;5022528;28;20037;-47
2023/07/19 01:28:00;;;;;;;7.80;2.08;;;;;;;;;;5021427;28;20025;-51
2023/07/19 01:30:27;;;;;;;3.92;1.95;;;;;;;;;;5022164;28;20038;-45
2023/07/19 01:32:57;;;;;;;7.95;1.88;;;;;;;;;;5022494;28;20101;-46
2023/07/19 01:35:23;;;;;;;4.20;1.80;;;;;;;;;;5022831;28;20033;-43
2023/07/19 01:37:52;;;;;;;6.30;1.90;;;;;;;;;;5022984;28;20322;-46
2023/07/19 01:40:18;;;;;;;6.05;1.98;;;;;;;;;;5022857;28;20110;-46
2023/07/19 01:42:45;;;;;;;4.68;1.92;;;;;;;;;;5021840;28;20222;-50
2023/07/19 01:45:12;;;;;;;5.53;1.63;;;;;;;;;;5022375;28;20051;-44
2023/07/19 01:47:38;;;;;;;6.45;1.50;;;;;;;;;;5022232;28;20370;-47
2023/07/19 01:50:05;;;;;;;3.75;1.67;;;;;;;;;;5022350;28;20058;-46
2023/07/19 01:52:32;;;;;;;3.65;1.48;;;;;;;;;;5022376;28;20038;-56
2023/07/19 01:54:59;;;;;;;4.00;1.58;;;;;;;;;;5024050;28;20225;-44
2023/07/19 01:57:25;;;;;;;4.47;1.58;;;;;;;;;;5026978;28;20032;-51
2023/07/19 01:59:52;;;;;;;4.35;1.40;;;;;;;;;;5035902;28;20028;-46
2023/07/19 02:05:10;;;;;;;5.68;1.50;;;;;;;;;;5041938;28;20086;-48
2023/07/19 02:07:39;;;;;;;5.28;1.45;;;;;;;;;;5041596;28;20030;-47
2023/07/19 02:10:09;;;;;;;4.38;2.00;;;;;;;;;;5046755;28;20121;-54
2023/07/19 02:12:45;;;;;;;9.70;2.58;;;;;;;;;;5042093;28;20095;-58
2023/07/19 02:15:12;;;;;;;6.13;1.42;;;;;;;;;;5041665;28;20213;-45
2023/07/19 02:17:50;;;;;;;6.30;1.90;;;;;;;;;;5034163;28;20025;-52
2023/07/19 02:20:20;;;;;;;5.25;1.80;;;;;;;;;;5031528;28;20037;-45
2023/07/19 02:22:47;;;;;;;3.75;1.30;;;;;;;;;;5041251;28;20025;-46
2023/07/19 02:25:16;;;;;;;3.63;1.13;;;;;;;;;;5041503;28;20040;-49
2023/07/19 02:27:49;;;;;;;6.18;1.35;;;;;;;;;;5041814;28;20022;-54
2023/07/19 02:30:16;;;;;;;4.13;0.93;;;;;;;;;;5022228;28;20060;-49
2023/07/19 02:32:42;;;;;;;3.63;1.20;;;;;;;;;;5021532;28;20322;-48
2023/07/19 02:35:09;;;;;;;3.13;1.00;;;;;;;;;;5021342;28;20032;-52
2023/07/19 02:37:36;;;;;;;2.80;0.90;;;;;;;;;;5021775;28;20241;-53
2023/07/19 02:40:33;;;;;;;1.70;0.70;;;;;;;;;;5021185;28;20030;-57
2023/07/19 02:43:22;;;;;;;8.73;5.88;;;;;;;;;;5021576;28;20029;-54
2023/07/19 02:46:11;;;;;;;6.15;2.58;;;;;;;;;;5019654;28;20048;-51
2023/07/19 02:48:43;;;;;;;25.15;17.90;;;;;;;;;;5021302;28;20033;-57
2023/07/19 02:51:15;;;;;;;30.65;22.98;;;;;;;;;;5020401;28;20029;-56
2023/07/19 02:54:16;;;;;;;27.02;20.75;;;;;;;;;;5021695;28;20036;-53
2023/07/19 02:56:43;;;;;;;33.10;26.33;;;;;;;;;;5021797;28;20038;-59
2023/07/19 02:59:33;;;;;;;32.45;24.85;;;;;;;;;;5021439;28;20321;-55
2023/07/19 03:02:00;;;;;;;33.95;26.35;;;;;;;;;;5021312;28;20026;-56
2023/07/19 03:04:42;;;;;;;25.50;20.30;;;;;;;;;;5021044;28;20030;-51
2023/07/19 03:07:26;;;;;;;16.52;12.65;;;;;;;;;;5021402;28;20038;-55
2023/07/19 03:09:53;;;;;;;12.63;9.48;;;;;;;;;;5016240;28;20070;-57
2023/07/19 03:12:20;;;;;;;16.63;12.52;;;;;;;;;;5021163;28;20079;-56
2023/07/19 03:18:01;;;;;;;8.25;5.95;;;;;;;;;;5041097;28;20102;-61
2023/07/19 03:20:33;;;;;;;6.85;4.72;;;;;;;;;;5040880;28;20221;-52
2023/07/19 03:26:22;;;;;;;10.35;6.50;;;;;;;;;;4980289;28;20073;-50
2023/07/19 03:29:15;;;;;;;9.38;6.80;;;;;;;;;;5041377;28;20082;-56
2023/07/19 03:32:01;;;;;;;9.02;7.13;;;;;;;;;;5040086;28;20062;-51
2023/07/19 03:34:45;;;;;;;11.43;7.95;;;;;;;;;;5045143;28;20233;-49
2023/07/19 03:37:14;;;;;;;12.20;10.05;;;;;;;;;;5043343;28;20221;-52
2023/07/19 03:39:46;;;;;;;13.15;9.93;;;;;;;;;;5044264;28;20029;-56
2023/07/19 03:42:25;;;;;;;11.93;8.60;;;;;;;;;;5043988;28;20327;-57
2023/07/19 03:44:54;;;;;;;10.95;6.93;;;;;;;;;;5044619;28;20320;-49
2023/07/19 03:50:16;;;;;;;8.70;5.38;;;;;;;;;;4984142;28;20262;-56
2023/07/19 03:52:51;;;;;;;5.70;3.78;;;;;;;;;;5038823;28;20336;-53
2023/07/19 03:55:18;;;;;;;4.85;3.08;;;;;;;;;;5042765;28;20044;-52
2023/07/19 03:57:48;;;;;;;5.93;2.50;;;;;;;;;;5043830;28;20098;-54
2023/07/19 04:00:24;;;;;;;4.72;2.50;;;;;;;;;;5042733;28;20101;-59
2023/07/19 04:02:54;;;;;;;6.05;2.10;;;;;;;;;;5043949;28;20075;-55
2023/07/19 04:05:20;;;;;;;4.07;2.28;;;;;;;;;;5043661;28;20385;-54
2023/07/19 04:07:47;;;;;;;3.63;1.85;;;;;;;;;;5043650;28;20021;-57
2023/07/19 04:10:14;;;;;;;3.85;1.80;;;;;;;;;;5043949;28;20041;-54
2023/07/19 04:12:41;;;;;;;5.20;1.92;;;;;;;;;;5043499;28;20092;-53
2023/07/19 04:15:09;;;;;;;6.38;1.80;;;;;;;;;;5044024;28;20021;-53
2023/07/19 04:17:36;;;;;;;5.43;1.55;;;;;;;;;;5043505;28;20037;-51
2023/07/19 04:20:03;;;;;;;5.25;1.33;;;;;;;;;;5043885;28;20045;-51
2023/07/19 04:22:30;;;;;;;3.88;1.38;;;;;;;;;;5043511;28;20014;-54
2023/07/19 04:24:56;;;;;;;3.97;1.48;;;;;;;;;;5043447;28;20028;-58
2023/07/19 04:27:23;;;;;;;4.65;1.65;;;;;;;;;;5042278;28;20348;-52
2023/07/19 04:29:50;;;;;;;5.60;1.63;;;;;;;;;;5042496;28;20026;-52
2023/07/19 04:32:17;;;;;;;4.05;1.90;;;;;;;;;;5043310;28;20056;-52
2023/07/19 04:34:43;;;;;;;4.88;1.70;;;;;;;;;;5043619;28;20101;-57
2023/07/19 04:37:10;;;;;;;5.18;1.65;;;;;;;;;;5043164;28;20021;-52
2023/07/19 04:39:37;;;;;;;5.53;1.35;;;;;;;;;;5043645;28;20022;-52
2023/07/19 04:42:03;;;;;;;4.35;1.27;;;;;;;;;;5043442;28;20053;-53
2023/07/19 04:44:30;;;;;;;3.67;1.30;;;;;;;;;;5043712;28;20013;-52
2023/07/19 04:46:57;;;;;;;3.85;1.40;;;;;;;;;;5042459;28;20025;-57
2023/07/19 04:49:25;;;;;;;5.43;1.70;;;;;;;;;;5043527;28;20032;-54
2023/07/19 04:51:52;;;;;;;5.22;1.50;;;;;;;;;;5043156;28;20022;-57
2023/07/19 04:54:19;;;;;;;6.25;1.67;;;;;;;;;;5043312;28;20370;-50
2023/07/19 04:56:46;;;;;;;4.78;1.23;;;;;;;;;;5042801;28;20037;-55
2023/07/19 04:59:12;;;;;;;7.30;1.50;;;;;;;;;;5043256;28;20082;-53
2023/07/19 05:01:39;;;;;;;4.60;1.45;;;;;;;;;;5043040;28;20293;-54
2023/07/19 05:04:06;;;;;;;3.95;1.40;;;;;;;;;;5043146;28;20033;-52
2023/07/19 05:06:32;;;;;;;3.03;1.10;;;;;;;;;;5042981;28;20030;-51
2023/07/19 05:08:59;;;;;;;3.22;1.10;;;;;;;;;;5042599;28;20290;-50
2023/07/19 05:11:26;;;;;;;4.88;1.40;;;;;;;;;;5042923;28;20333;-53
2023/07/19 05:13:52;;;;;;;5.80;1.52;;;;;;;;;;5042946;28;20033;-57
2023/07/19 05:16:19;;;;;;;4.60;1.50;;;;;;;;;;5042733;28;20029;-52
2023/07/19 05:18:46;;;;;;;4.25;1.23;;;;;;;;;;5042798;28;20037;-53
2023/07/19 05:21:15;;;;;;;3.97;1.55;;;;;;;;;;5042821;28;20213;-56
2023/07/19 05:23:42;;;;;;;3.80;1.20;;;;;;;;;;5042963;28;20078;-51
2023/07/19 05:26:09;;;;;;;5.35;1.38;;;;;;;;;;5042681;28;20213;-52
2023/07/19 05:28:36;;;;;;;4.68;1.35;;;;;;;;;;5042626;28;20025;-52
2023/07/19 05:31:08;;;;;;;4.53;1.50;;;;;;;;;;5042863;28;20314;-52
2023/07/19 05:33:35;;;;;;;13.45;1.75;;;;;;;;;;5042685;28;20066;-51
2023/07/19 05:36:02;;;;;;;8.75;1.65;;;;;;;;;;5042351;28;20029;-52
2023/07/19 05:38:29;;;;;;;7.18;1.75;;;;;;;;;;5042318;28;20029;-50
2023/07/19 05:41:00;;;;;;;5.63;2.13;;;;;;;;;;5042268;28;20041;-53
2023/07/19 05:43:26;;;;;;;5.53;1.70;;;;;;;;;;5042802;28;20101;-52
2023/07/19 05:45:53;;;;;;;7.88;1.70;;;;;;;;;;5042579;28;20025;-52
2023/07/19 05:48:20;;;;;;;5.43;1.63;;;;;;;;;;5042220;28;20057;-57
2023/07/19 05:50:46;;;;;;;6.25;1.67;;;;;;;;;;5042659;28;20074;-53
2023/07/19 05:53:13;;;;;;;5.07;1.80;;;;;;;;;;5042154;28;20037;-54
2023/07/19 05:55:40;;;;;;;6.10;1.85;;;;;;;;;;5042017;28;20033;-51
2023/07/19 05:58:06;;;;;;;8.38;2.05;;;;;;;;;;5040986;28;20025;-51
2023/07/19 06:00:33;;;;;;;5.07;1.73;;;;;;;;;;5042090;28;20356;-54
2023/07/19 06:03:00;;;;;;;10.52;1.80;;;;;;;;;;5042111;28;20114;-52
2023/07/19 06:05:27;;;;;;;8.00;1.67;;;;;;;;;;5042046;28;20058;-55
2023/07/19 06:07:54;;;;;;;5.18;1.30;;;;;;;;;;5041746;28;20036;-57
2023/07/19 06:10:20;;;;;;;4.93;1.48;;;;;;;;;;5042037;28;20045;-53
2023/07/19 06:12:47;;;;;;;6.15;1.55;;;;;;;;;;5042098;28;20018;-54
2023/07/19 06:15:14;;;;;;;5.35;1.40;;;;;;;;;;5041788;28;20036;-52
2023/07/19 06:17:40;;;;;;;8.27;1.52;;;;;;;;;;5041622;28;20242;-51
2023/07/19 06:20:10;;;;;;;6.65;1.17;;;;;;;;;;5041962;28;20021;-52
2023/07/19 06:22:37;;;;;;;4.72;1.30;;;;;;;;;;5041682;28;20305;-50
2023/07/19 06:25:04;;;;;;;3.70;1.23;;;;;;;;;;5042075;28;20055;-54
2023/07/19 06:27:31;;;;;;;5.15;1.40;;;;;;;;;;5041655;28;20082;-50
2023/07/19 06:29:59;;;;;;;4.30;1.30;;;;;;;;;;5042141;28;20033;-58
2023/07/19 06:32:26;;;;;;;6.78;1.35;;;;;;;;;;5041945;28;20038;-51
2023/07/19 06:34:53;;;;;;;4.78;1.02;;;;;;;;;;5041769;28;20041;-54
2023/07/19 06:37:19;;;;;;;6.45;1.13;;;;;;;;;;5041368;28;20243;-53
2023/07/19 06:39:48;;;;;;;7.28;1.27;;;;;;;;;;5042250;28;20225;-51
2023/07/19 06:42:14;;;;;;;5.43;1.13;;;;;;;;;;5041649;28;20022;-54
2023/07/19 06:44:42;;;;;;;7.72;1.27;;;;;;;;;;5042076;28;20025;-54
2023/07/19 06:47:09;;;;;;;5.20;1.05;;;;;;;;;;5041514;28;20057;-51
2023/07/19 06:49:36;;;;;;;3.10;1.52;;;;;;;;;;5041486;28;20026;-52
2023/07/19 06:52:03;;;;;;;7.55;1.48;;;;;;;;;;5041633;28;20035;-51
2023/07/19 06:54:30;;;;;;;3.42;1.23;;;;;;;;;;5041197;28;20065;-54
2023/07/19 06:56:56;;;;;;;7.10;1.58;;;;;;;;;;5031320;28;20025;-56
2023/07/19 06:59:23;;;;;;;5.93;1.20;;;;;;;;;;5034553;28;20091;-49
2023/07/19 07:01:50;;;;;;;5.32;1.40;;;;;;;;;;5034420;28;20025;-53
2023/07/19 07:04:16;;;;;;;8.50;1.25;;;;;;;;;;5025079;28;20045;-57
2023/07/19 07:06:43;;;;;;;4.32;1.27;;;;;;;;;;5021277;28;20175;-57
2023/07/19 07:09:09;;;;;;;4.95;1.45;;;;;;;;;;5021196;28;20081;-52
2023/07/19 07:11:36;;;;;;;7.72;1.70;;;;;;;;;;5021426;28;20026;-58
2023/07/19 07:14:03;;;;;;;7.88;1.45;;;;;;;;;;5022008;28;20038;-52
2023/07/19 07:16:29;;;;;;;7.03;2.15;;;;;;;;;;5021129;28;20037;-56
2023/07/19 07:18:56;;;;;;;6.47;2.30;;;;;;;;;;5021064;28;20026;-58
2023/07/19 07:21:23;;;;;;;6.00;2.30;;;;;;;;;;5021306;28;20030;-48
2023/07/19 07:23:50;;;;;;;6.43;2.00;;;;;;;;;;5021474;28;20029;-58
2023/07/19 07:26:16;;;;;;;8.70;2.20;;;;;;;;;;5020989;28;20022;-54
2023/07/19 07:28:44;;;;;;;7.03;2.00;;;;;;;;;;5020098;28;20045;-51
2023/07/19 07:31:11;;;;;;;7.03;1.98;;;;;;;;;;5021163;28;20026;-48
2023/07/19 07:33:39;;;;;;;9.05;3.53;;;;;;;;;;5021224;28;20030;-55
2023/07/19 07:36:06;;;;;;;13.00;3.88;;;;;;;;;;5020967;28;20026;-51
2023/07/19 07:38:33;;;;;;;9.63;2.80;;;;;;;;;;5020775;28;20041;-54
2023/07/19 07:41:01;;;;;;;6.75;2.40;;;;;;;;;;5020647;28;20317;-50
2023/07/19 07:43:27;;;;;;;9.35;2.67;;;;;;;;;;5021314;28;20093;-49
2023/07/19 07:45:55;;;;;;;8.85;2.20;;;;;;;;;;5021284;28;20026;-53
2023/07/19 07:48:24;;;;;;;7.43;2.00;;;;;;;;;;5020727;28;20026;-51
2023/07/19 07:50:51;;;;;;;7.47;2.15;;;;;;;;;;5021148;28;20053;-47
2023/07/19 07:53:21;;;;;;;6.60;1.63;;;;;;;;;;5020752;28;20109;-51
2023/07/19 07:55:50;;;;;;;8.65;2.15;;;;;;;;;;5020503;28;20077;-56
2023/07/19 07:58:17;;;;;;;3.80;1.60;;;;;;;;;;5020802;28;20101;-49
2023/07/19 08:00:44;;;;;;;5.75;1.88;;;;;;;;;;5021068;28;20026;-49
2023/07/19 08:03:11;;;;;;;4.07;1.70;;;;;;;;;;5020767;28;20048;-59
2023/07/19 08:05:38;;;;;;;5.45;1.45;;;;;;;;;;5020571;28;20018;-54
2023/07/19 08:08:06;;;;;;;6.93;1.65;;;;;;;;;;5020837;28;20042;-48
2023/07/19 08:10:39;;;;;;;4.15;1.20;;;;;;;;;;5020723;28;20191;-46
2023/07/19 08:13:10;;;;;;;5.28;1.50;;;;;;;;;;5020655;28;20133;-55
2023/07/19 08:15:36;;;;;;;5.43;1.63;;;;;;;;;;5020385;28;20034;-49
2023/07/19 08:18:04;;;;;;;6.72;1.60;;;;;;;;;;5020246;28;20017;-50
2023/07/19 08:20:31;;;;;;;6.75;1.27;;;;;;;;;;5020451;28;20051;-51
2023/07/19 08:22:58;;;;;;;8.57;1.50;;;;;;;;;;5023754;28;20026;-50
2023/07/19 08:25:24;;;;;;;4.13;1.25;;;;;;;;;;5023634;28;20018;-52
2023/07/19 08:27:51;;;;;;;4.95;1.52;;;;;;;;;;5023926;28;20063;-49
2023/07/19 08:30:18;;;;;;;2.25;1.27;;;;;;;;;;5023955;28;20026;-57
2023/07/19 08:32:48;;;;;;;7.07;2.33;;;;;;;;;;5023554;28;20213;-55
2023/07/19 08:35:15;;;;;;;3.78;1.77;;;;;;;;;;5023639;28;20036;-50
2023/07/19 08:37:45;;;;;;;6.47;1.80;;;;;;;;;;5023543;28;20089;-50
2023/07/19 08:40:12;;;;;;;5.60;1.90;;;;;;;;;;5023305;28;20022;-55
2023/07/19 08:42:39;;;;;;;6.38;2.05;;;;;;;;;;5023667;28;20026;-54
2023/07/19 08:45:10;;;;;;;6.68;1.67;;;;;;;;;;5024247;28;20056;-53
2023/07/19 08:47:41;;;;;;;7.75;2.70;;;;;;;;;;5023382;28;20028;-47
2023/07/19 08:50:08;;;;;;;9.85;3.00;;;;;;;;;;5024065;28;20029;-51
2023/07/19 08:52:35;;;;;;;6.50;2.50;;;;;;;;;;5023678;28;20098;-52
2023/07/19 08:55:03;;;;;;;8.55;3.20;;;;;;;;;;5023815;28;20037;-45
2023/07/19 08:57:30;;;;;;;6.55;2.40;;;;;;;;;;5023571;28;20049;-50
2023/07/19 08:59:56;;;;;;;6.75;2.33;;;;;;;;;;5023459;28;20030;-52
2023/07/19 09:02:25;;;;;;;10.38;3.00;;;;;;;;;;5023701;28;20022;-48
2023/07/19 09:05:14;;;;;;;9.63;2.42;;;;;;;;;;5024010;28;20026;-47
2023/07/19 09:07:43;;;;;;;6.30;2.00;;;;;;;;;;5023253;28;20038;-54
2023/07/19 09:10:10;;;;;;;5.68;1.98;;;;;;;;;;5023016;28;20041;-54
2023/07/19 09:12:37;;;;;;;5.57;2.33;;;;;;;;;;5023274;28;20042;-49
2023/07/19 09:15:06;;;;;;;10.82;1.90;;;;;;;;;;5023337;28;20049;-49
2023/07/19 09:17:37;;;;;;;7.13;2.20;;;;;;;;;;5022864;28;20225;-52
2023/07/19 09:20:07;;;;;;;4.57;1.55;;;;;;;;;;5023300;28;20201;-50
2023/07/19 09:22:37;;;;;;;4.32;1.30;;;;;;;;;;5023071;28;20047;-52
2023/07/19 09:25:05;;;;;;;3.90;1.38;;;;;;;;;;5022652;28;20030;-50
2023/07/19 09:27:32;;;;;;;2.70;1.15;;;;;;;;;;5023096;28;20058;-52
2023/07/19 09:29:59;;;;;;;3.33;1.08;;;;;;;;;;5023316;28;20025;-51
2023/07/19 09:32:26;;;;;;;4.18;0.93;;;;;;;;;;5022831;28;20037;-56
2023/07/19 09:34:56;;;;;;;1.55;0.90;;;;;;;;;;5026556;28;20074;-53
2023/07/19 09:37:25;;;;;;;3.45;1.00;;;;;;;;;;5042545;28;20029;-54
2023/07/19 09:39:55;;;;;;;4.50;1.10;;;;;;;;;;5041606;28;20029;-51
2023/07/19 09:42:21;;;;;;;3.75;1.20;;;;;;;;;;5042612;28;20032;-48
2023/07/19 09:44:48;;;;;;;3.40;1.10;;;;;;;;;;5042851;28;20017;-50
2023/07/19 09:47:15;;;;;;;5.40;1.10;;;;;;;;;;5042467;28;20053;-50
2023/07/19 09:49:43;;;;;;;3.70;1.17;;;;;;;;;;5042617;28;20139;-48
2023/07/19 09:52:14;;;;;;;5.35;1.20;;;;;;;;;;5042305;28;20029;-53
2023/07/19 09:54:43;;;;;;;4.85;1.40;;;;;;;;;;5042652;28;20096;-55
2023/07/19 09:57:10;;;;;;;1.92;0.73;;;;;;;;;;5041956;28;20022;-53
2023/07/19 09:59:39;;;;;;;5.63;1.15;;;;;;;;;;5042449;28;20037;-50
2023/07/19 10:02:06;;;;;;;4.57;1.08;;;;;;;;;;5041718;28;20025;-51
2023/07/19 10:04:40;;;;;;;5.32;1.10;;;;;;;;;;5042689;28;20349;-51
2023/07/19 10:07:14;;;;;;;4.47;1.30;;;;;;;;;;5042184;28;20033;-59
2023/07/19 10:09:43;;;;;;;3.90;1.10;;;;;;;;;;5041755;28;20049;-49
2023/07/19 10:12:23;;;;;;;4.30;1.08;;;;;;;;;;5042121;28;20037;-54
2023/07/19 10:14:57;;;;;;;2.60;1.00;;;;;;;;;;5042587;28;20093;-58
2023/07/19 10:17:24;;;;;;;2.90;1.00;;;;;;;;;;5042037;28;20044;-54
2023/07/19 10:20:17;;;;;;;9.32;1.10;;;;;;;;;;5042372;28;20029;-51
2023/07/19 10:22:55;;;;;;;5.22;1.33;;;;;;;;;;5042415;28;20057;-52
2023/07/19 10:25:24;;;;;;;2.13;1.20;;;;;;;;;;5041711;28;20022;-50
2023/07/19 10:28:02;;;;;;;3.65;1.40;;;;;;;;;;5041860;28;20075;-48
2023/07/19 10:30:48;;;;;;;4.45;1.20;;;;;;;;;;5041824;28;20097;-49
2023/07/19 10:33:14;;;;;;;3.65;1.60;;;;;;;;;;5041977;28;20067;-53
2023/07/19 10:35:42;;;;;;;3.80;1.65;;;;;;;;;;5041539;28;20033;-58
2023/07/19 10:38:19;;;;;;;6.05;1.60;;;;;;;;;;5041459;28;20094;-51
2023/07/19 10:40:54;;;;;;;5.18;1.45;;;;;;;;;;5042043;28;20045;-46
2023/07/19 10:43:21;;;;;;;4.22;1.40;;;;;;;;;;5041514;28;20093;-60
2023/07/19 10:45:48;;;;;;;4.57;1.30;;;;;;;;;;5040892;28;20029;-48
2023/07/19 10:48:14;;;;;;;3.90;1.13;;;;;;;;;;5041332;28;20278;-52
2023/07/19 10:50:43;;;;;;;4.35;1.10;;;;;;;;;;5041168;28;20247;-49
2023/07/19 10:53:10;;;;;;;4.03;1.05;;;;;;;;;;5041268;28;20040;-51
2023/07/19 10:55:37;;;;;;;2.83;1.20;;;;;;;;;;5041191;28;20079;-55
2023/07/19 10:58:03;;;;;;;4.88;1.33;;;;;;;;;;5040850;28;20024;-50
2023/07/19 11:00:30;;;;;;;2.50;1.10;;;;;;;;;;5040185;28;20093;-54
2023/07/19 11:02:57;;;;;;;4.63;1.10;;;;;;;;;;5033452;28;20225;-51
2023/07/19 11:05:23;;;;;;;5.70;1.40;;;;;;;;;;5025347;28;20026;-48
2023/07/19 11:07:51;;;;;;;5.07;1.63;;;;;;;;;;5020957;28;20115;-53
2023/07/19 11:10:18;;;;;;;9.43;1.77;;;;;;;;;;5021275;28;20042;-49
2023/07/19 11:12:45;;;;;;;4.10;1.40;;;;;;;;;;5040880;28;20077;-51
2023/07/19 11:15:16;;;;;;;6.93;2.33;;;;;;;;;;5040945;28;20049;-52
2023/07/19 11:17:48;;;;;;;8.55;2.08;;;;;;;;;;5040888;28;20029;-49
2023/07/19 11:20:27;;;;;;;8.98;2.20;;;;;;;;;;5039816;28;20032;-49
2023/07/19 11:23:05;;;;;;;2.17;1.13;;;;;;;;;;5040747;28;20026;-51
2023/07/19 11:25:31;;;;;;;4.90;1.90;;;;;;;;;;5041255;28;20053;-52
2023/07/19 11:27:58;;;;;;;5.00;1.92;;;;;;;;;;5040727;28;20133;-56
2023/07/19 11:30:35;;;;;;;3.58;1.30;;;;;;;;;;5041016;28;20234;-55
2023/07/19 11:33:06;;;;;;;3.78;1.38;;;;;;;;;;5040760;28;20029;-54
2023/07/19 11:35:33;;;;;;;3.63;1.50;;;;;;;;;;5040973;28;20040;-53
2023/07/19 11:38:00;;;;;;;4.55;1.60;;;;;;;;;;5040384;28;20029;-57
2023/07/19 11:40:49;;;;;;;6.00;1.52;;;;;;;;;;5040210;28;20039;-53
2023/07/19 11:43:15;;;;;;;3.38;1.30;;;;;;;;;;5043440;28;20074;-51
2023/07/19 11:45:43;;;;;;;7.00;1.60;;;;;;;;;;5040877;28;20030;-51
2023/07/19 11:51:32;;;;;;;5.15;1.20;;;;;;;;;;5040727;28;20305;-61
2023/07/19 11:53:58;;;;;;;3.55;1.00;;;;;;;;;;5040419;28;20086;-61
2023/07/19 11:56:25;;;;;;;23.52;3.80;;;;;;;;;;5041289;28;20026;-62
2023/07/19 11:58:55;;;;;;;34.10;4.68;;;;;;;;;;5043525;28;20082;-55
2023/07/19 12:01:21;;;;;;;45.90;7.07;;;;;;;;;;5035114;28;20347;-53
2023/07/19 12:03:48;;;;;;;23.92;3.72;;;;;;;;;;5026841;28;20048;-59
2023/07/19 12:06:35;;;;;;;27.55;4.07;;;;;;;;;;5037024;28;20048;-55
2023/07/19 12:09:02;;;;;;;42.28;5.80;;;;;;;;;;5030875;28;20049;-51
2023/07/19 12:11:29;;;;;;;60.67;7.72;;;;;;;;;;5022550;28;20337;-50
2023/07/19 12:13:57;;;;;;;39.17;6.13;;;;;;;;;;5033013;28;20030;-47
2023/07/19 12:16:24;;;;;;;33.35;5.95;;;;;;;;;;5044396;28;20038;-48
2023/07/19 12:18:51;;;;;;;26.55;3.70;;;;;;;;;;5037164;28;20033;-53
2023/07/19 12:21:17;;;;;;;23.80;4.00;;;;;;;;;;5029945;28;20109;-49
2023/07/19 12:23:45;;;;;;;24.13;3.97;;;;;;;;;;5023757;28;20030;-50
2023/07/19 12:26:13;;;;;;;18.02;3.63;;;;;;;;;;5029616;28;20053;-57
2023/07/19 12:28:44;;;;;;;12.52;3.35;;;;;;;;;;5029075;28;20029;-52
2023/07/19 12:31:11;;;;;;;12.93;3.10;;;;;;;;;;5023215;28;20026;-52
2023/07/19 12:33:44;;;;;;;8.98;2.90;;;;;;;;;;5023627;28;20034;-49
2023/07/19 12:36:11;;;;;;;8.57;2.25;;;;;;;;;;5028693;28;20056;-51
2023/07/19 12:38:40;;;;;;;8.45;2.17;;;;;;;;;;5038454;28;20040;-52
2023/07/19 12:41:07;;;;;;;3.25;0.80;;;;;;;;;;5037126;28;20110;-48
2023/07/19 12:43:33;;;;;;;17.85;8.48;;;;;;;;;;5031688;28;20026;-42
2023/07/19 12:46:03;;;;;;;5.72;1.20;;;;;;;;;;5024082;28;20060;-52
2023/07/19 12:48:30;;;;;;;1.88;0.55;;;;;;;;;;5023338;28;20037;-47
2023/07/19 12:50:56;;;;;;;4.68;0.45;;;;;;;;;;5026410;28;20029;-48
2023/07/19 12:53:27;;;;;;;3.60;0.52;;;;;;;;;;5028248;28;20025;-52
2023/07/19 12:55:53;;;;;;;1.48;0.40;;;;;;;;;;5022390;28;20034;-59
2023/07/19 12:58:21;;;;;;;2.47;0.45;;;;;;;;;;5022234;28;20026;-53
2023/07/19 13:00:48;;;;;;;1.58;0.60;;;;;;;;;;5023009;28;20053;-59
2023/07/19 13:03:14;;;;;;;0.90;0.47;;;;;;;;;;5023404;28;20066;-52
2023/07/19 13:05:41;;;;;;;1.55;0.45;;;;;;;;;;5023521;28;20033;-53
2023/07/19 13:08:12;;;;;;;2.58;0.55;;;;;;;;;;5023107;28;20034;-56
2023/07/19 13:10:39;;;;;;;2.47;0.80;;;;;;;;;;5023476;28;20211;-56
2023/07/19 13:13:05;;;;;;;1.92;1.30;;;;;;;;;;5023503;28;20036;-47
2023/07/19 13:15:50;;;;;;;2.03;0.90;;;;;;;;;;5022747;28;20033;-49
2023/07/19 13:18:16;;;;;;;2.15;0.80;;;;;;;;;;5023229;28;20040;-53
2023/07/19 13:20:43;;;;;;;1.25;0.90;;;;;;;;;;5023370;28;20033;-51
2023/07/19 13:23:10;;;;;;;2.08;0.80;;;;;;;;;;5022989;28;20271;-63
2023/07/19 13:25:38;;;;;;;1.33;0.70;;;;;;;;;;5023156;28;20034;-54
2023/07/19 13:28:05;;;;;;;1.23;0.60;;;;;;;;;;5023114;28;20310;-55
2023/07/19 13:30:32;;;;;;;1.40;0.60;;;;;;;;;;5023518;28;20082;-52
2023/07/19 13:32:58;;;;;;;1.05;0.57;;;;;;;;;;5023476;28;20026;-53
2023/07/19 13:35:25;;;;;;;1.88;0.60;;;;;;;;;;5023181;28;20037;-51
2023/07/19 13:37:53;;;;;;;1.55;0.70;;;;;;;;;;5022709;28;20104;-53
2023/07/19 13:40:28;;;;;;;4.32;1.27;;;;;;;;;;5023322;28;20032;-53
2023/07/19 13:42:54;;;;;;;2.03;0.90;;;;;;;;;;5022795;28;20394;-52
2023/07/19 13:45:21;;;;;;;3.45;0.88;;;;;;;;;;5022673;28;20237;-51
2023/07/19 13:47:48;;;;;;;2.70;0.80;;;;;;;;;;5022776;28;20077;-51
2023/07/19 13:50:20;;;;;;;3.35;0.80;;;;;;;;;;5022590;28;20026;-52
2023/07/19 13:52:47;;;;;;;5.07;0.80;;;;;;;;;;5022420;28;20029;-49
2023/07/19 13:55:24;;;;;;;2.75;1.33;;;;;;;;;;5022778;28;20060;-64
2023/07/19 13:57:50;;;;;;;2.72;0.98;;;;;;;;;;5021932;28;20026;-50
2023/07/19 14:00:17;;;;;;;4.63;0.90;;;;;;;;;;5022384;28;20049;-51
2023/07/19 14:02:47;;;;;;;0.77;0.60;;;;;;;;;;5022331;28;20044;-56
2023/07/19 14:05:14;;;;;;;2.08;1.00;;;;;;;;;;5022318;28;20045;-53
2023/07/19 14:10:27;;;;;;;2.28;0.90;;;;;;;;;;5001900;28;20261;-58
2023/07/19 14:12:54;;;;;;;2.78;0.88;;;;;;;;;;5003088;28;20042;-51
2023/07/19 14:15:21;;;;;;;3.95;0.75;;;;;;;;;;5002800;28;20043;-49
2023/07/19 14:17:48;;;;;;;2.10;0.85;;;;;;;;;;5001243;28;20030;-56
2023/07/19 14:20:15;;;;;;;3.00;0.70;;;;;;;;;;5000483;28;20050;-51
2023/07/19 14:22:43;;;;;;;1.75;0.60;;;;;;;;;;5002855;28;20082;-53
2023/07/19 14:25:10;;;;;;;2.70;0.60;;;;;;;;;;5002722;28;20096;-49
2023/07/19 14:27:40;;;;;;;2.28;0.57;;;;;;;;;;5002540;28;20042;-55
2023/07/19 14:30:09;;;;;;;1.70;0.50;;;;;;;;;;5002997;28;20038;-58
2023/07/19 14:32:36;;;;;;;4.32;0.55;;;;;;;;;;5002537;28;20026;-58
2023/07/19 14:35:06;;;;;;;2.15;0.50;;;;;;;;;;5003002;28;20037;-59
2023/07/19 14:37:33;;;;;;;1.52;0.40;;;;;;;;;;5003194;28;20050;-53
2023/07/19 14:40:00;;;;;;;2.78;0.73;;;;;;;;;;5002785;28;20026;-51
2023/07/19 14:42:26;;;;;;;1.05;0.50;;;;;;;;;;5001322;28;20042;-53
2023/07/19 14:44:53;;;;;;;2.25;0.50;;;;;;;;;;5002479;28;20025;-53
2023/07/19 14:47:20;;;;;;;1.20;0.40;;;;;;;;;;5002688;28;20030;-57
2023/07/19 14:49:47;;;;;;;0.70;0.50;;;;;;;;;;5002337;28;20026;-54
2023/07/19 14:52:13;;;;;;;1.83;0.80;;;;;;;;;;5002973;28;20072;-57
2023/07/19 14:54:40;;;;;;;1.20;0.80;;;;;;;;;;5002257;28;20026;-55
2023/07/19 14:57:09;;;;;;;4.40;0.75;;;;;;;;;;5002509;28;20303;-53
2023/07/19 14:59:36;;;;;;;0.77;0.50;;;;;;;;;;5002094;28;20017;-53
2023/07/19 15:02:03;;;;;;;1.42;0.40;;;;;;;;;;5002191;28;20030;-53
2023/07/19 15:04:32;;;;;;;0.60;0.40;;;;;;;;;;5002067;28;20034;-52
2023/07/19 15:07:01;;;;;;;0.82;0.40;;;;;;;;;;5002124;28;20352;-55
2023/07/19 15:09:28;;;;;;;0.70;0.40;;;;;;;;;;5013008;28;20046;-57